sensor_id;sensor_type;location;lat;lon;timestamp;temperature;humidity
6740;DHT22;3407;49.882;10.920;2023-07-24T00:02:22;19.40;99.90
6740;DHT22;3407;49.882;10.920;2023-07-24T00:07:18;19.40;99.90
6740;DHT22;3407;49.882;10.920;2023-07-24T00:12:13;19.40;99.90
6740;DHT22;3407;49.882;10.920;2023-07-24T00:17:09;19.40;99.90
6740;DHT22;3407;49.882;10.920;2023-07-24T00:22:04;19.40;99.90
6740;DHT22;3407;49.882;10.920;2023-07-24T00:27:00;19.30;99.90
6740;DHT22;3407;49.882;10.920;2023-07-24T00:31:56;19.30;99.90
6740;DHT22;3407;49.882;10.920;2023-07-24T00:36:52;19.30;99.90
6740;DHT22;3407;49.882;10.920;2023-07-24T00:41:47;19.40;99.90
6740;DHT22;3407;49.882;10.920;2023-07-24T00:46:43;19.50;99.90
6740;DHT22;3407;49.882;10.920;2023-07-24T00:51:39;19.60;99.90
6740;DHT22;3407;49.882;10.920;2023-07-24T00:56:35;19.80;99.90
6740;DHT22;3407;49.882;10.920;2023-07-24T01:01:30;19.90;99.90
6740;DHT22;3407;49.882;10.920;2023-07-24T01:06:26;20.00;99.90
6740;DHT22;3407;49.882;10.920;2023-07-24T01:11:27;20.10;99.90
6740;DHT22;3407;49.882;10.920;2023-07-24T01:16:27;20.10;99.90
6740;DHT22;3407;49.882;10.920;2023-07-24T01:21:33;19.90;99.90
6740;DHT22;3407;49.882;10.920;2023-07-24T01:26:34;19.70;99.90
6740;DHT22;3407;49.882;10.920;2023-07-24T01:31:29;19.60;99.90
6740;DHT22;3407;49.882;10.920;2023-07-24T01:36:25;19.50;99.90
6740;DHT22;3407;49.882;10.920;2023-07-24T01:41:20;19.40;99.90
6740;DHT22;3407;49.882;10.920;2023-07-24T01:46:16;19.40;99.90
6740;DHT22;3407;49.882;10.920;2023-07-24T01:51:12;19.40;99.90
6740;DHT22;3407;49.882;10.920;2023-07-24T01:56:07;19.30;99.90
6740;DHT22;3407;49.882;10.920;2023-07-24T02:01:03;19.30;99.90
6740;DHT22;3407;49.882;10.920;2023-07-24T02:05:58;19.30;99.90
6740;DHT22;3407;49.882;10.920;2023-07-24T02:10:54;19.20;99.90
6740;DHT22;3407;49.882;10.920;2023-07-24T02:15:49;19.00;99.90
6740;DHT22;3407;49.882;10.920;2023-07-24T02:20:49;19.00;99.90
6740;DHT22;3407;49.882;10.920;2023-07-24T02:25:45;19.00;99.90
6740;DHT22;3407;49.882;10.920;2023-07-24T02:30:41;18.90;1.00
6740;DHT22;3407;49.882;10.920;2023-07-24T02:35:40;18.90;1.00
6740;DHT22;3407;49.882;10.920;2023-07-24T02:40:36;18.80;1.00
6740;DHT22;3407;49.882;10.920;2023-07-24T02:45:34;18.70;13.20
6740;DHT22;3407;49.882;10.920;2023-07-24T02:50:29;18.60;99.90
6740;DHT22;3407;49.882;10.920;2023-07-24T02:55:25;18.40;1.00
6740;DHT22;3407;49.882;10.920;2023-07-24T03:00:21;18.20;99.90
6740;DHT22;3407;49.882;10.920;2023-07-24T03:05:16;18.20;99.90
6740;DHT22;3407;49.882;10.920;2023-07-24T03:10:12;18.10;1.00
6740;DHT22;3407;49.882;10.920;2023-07-24T03:15:08;18.10;99.90
6740;DHT22;3407;49.882;10.920;2023-07-24T03:20:13;17.90;23.20
6740;DHT22;3407;49.882;10.920;2023-07-24T03:25:09;17.80;1.00
6740;DHT22;3407;49.882;10.920;2023-07-24T03:30:05;17.80;1.00
6740;DHT22;3407;49.882;10.920;2023-07-24T03:35:01;17.80;1.00
6740;DHT22;3407;49.882;10.920;2023-07-24T03:39:56;17.80;1.00
6740;DHT22;3407;49.882;10.920;2023-07-24T03:44:53;17.80;99.90
6740;DHT22;3407;49.882;10.920;2023-07-24T03:49:49;17.80;99.90
6740;DHT22;3407;49.882;10.920;2023-07-24T03:54:44;17.70;99.90
6740;DHT22;3407;49.882;10.920;2023-07-24T03:59:40;17.60;1.00
6740;DHT22;3407;49.882;10.920;2023-07-24T04:04:36;17.60;1.00
6740;DHT22;3407;49.882;10.920;2023-07-24T04:09:32;17.70;1.00
6740;DHT22;3407;49.882;10.920;2023-07-24T04:14:27;17.90;1.00
6740;DHT22;3407;49.882;10.920;2023-07-24T04:19:23;18.30;99.90
6740;DHT22;3407;49.882;10.920;2023-07-24T04:24:18;18.20;1.00
6740;DHT22;3407;49.882;10.920;2023-07-24T04:29:14;18.30;1.00
6740;DHT22;3407;49.882;10.920;2023-07-24T04:34:09;18.30;99.90
6740;DHT22;3407;49.882;10.920;2023-07-24T04:39:05;18.50;99.90
6740;DHT22;3407;49.882;10.920;2023-07-24T04:44:00;18.50;74.30
6740;DHT22;3407;49.882;10.920;2023-07-24T04:48:56;18.60;1.00
6740;DHT22;3407;49.882;10.920;2023-07-24T04:53:51;17.80;1.00
6740;DHT22;3407;49.882;10.920;2023-07-24T04:58:48;17.50;1.00
6740;DHT22;3407;49.882;10.920;2023-07-24T05:03:44;17.40;1.00
6740;DHT22;3407;49.882;10.920;2023-07-24T05:08:39;17.20;3.20
6740;DHT22;3407;49.882;10.920;2023-07-24T05:13:35;17.10;1.00
6740;DHT22;3407;49.882;10.920;2023-07-24T05:18:30;16.90;12.10
6740;DHT22;3407;49.882;10.920;2023-07-24T05:23:26;16.80;17.10
6740;DHT22;3407;49.882;10.920;2023-07-24T05:28:21;16.70;24.70
6740;DHT22;3407;49.882;10.920;2023-07-24T05:33:17;17.00;39.40
6740;DHT22;3407;49.882;10.920;2023-07-24T05:38:12;17.00;40.60
6740;DHT22;3407;49.882;10.920;2023-07-24T05:43:08;17.30;52.50
6740;DHT22;3407;49.882;10.920;2023-07-24T05:48:03;17.40;44.00
6740;DHT22;3407;49.882;10.920;2023-07-24T05:52:59;17.40;39.10
6740;DHT22;3407;49.882;10.920;2023-07-24T05:57:54;17.20;29.40
6740;DHT22;3407;49.882;10.920;2023-07-24T06:02:50;17.50;52.30
6740;DHT22;3407;49.882;10.920;2023-07-24T06:07:46;17.80;51.10
6740;DHT22;3407;49.882;10.920;2023-07-24T06:12:42;18.10;50.80
6740;DHT22;3407;49.882;10.920;2023-07-24T06:17:37;19.20;69.40
6740;DHT22;3407;49.882;10.920;2023-07-24T06:22:33;20.20;1.00
6740;DHT22;3407;49.882;10.920;2023-07-24T06:27:29;19.90;1.00
6740;DHT22;3407;49.882;10.920;2023-07-24T06:32:24;20.00;1.00
6740;DHT22;3407;49.882;10.920;2023-07-24T06:37:20;20.50;1.00
6740;DHT22;3407;49.882;10.920;2023-07-24T06:42:15;20.60;99.90
6740;DHT22;3407;49.882;10.920;2023-07-24T06:47:11;21.90;99.90
6740;DHT22;3407;49.882;10.920;2023-07-24T06:52:06;23.90;1.00
6740;DHT22;3407;49.882;10.920;2023-07-24T06:57:02;25.00;1.00
6740;DHT22;3407;49.882;10.920;2023-07-24T07:01:58;24.20;1.00
6740;DHT22;3407;49.882;10.920;2023-07-24T07:06:53;24.30;1.00
6740;DHT22;3407;49.882;10.920;2023-07-24T07:11:49;24.20;1.00
6740;DHT22;3407;49.882;10.920;2023-07-24T07:16:44;24.50;1.00
6740;DHT22;3407;49.882;10.920;2023-07-24T07:21:42;24.80;1.00
6740;DHT22;3407;49.882;10.920;2023-07-24T07:26:38;24.40;99.90
6740;DHT22;3407;49.882;10.920;2023-07-24T07:31:33;25.20;99.90
6740;DHT22;3407;49.882;10.920;2023-07-24T07:36:29;26.40;99.90
6740;DHT22;3407;49.882;10.920;2023-07-24T07:41:24;26.40;99.90
6740;DHT22;3407;49.882;10.920;2023-07-24T07:46:20;26.20;99.90
6740;DHT22;3407;49.882;10.920;2023-07-24T07:51:15;25.50;99.90
6740;DHT22;3407;49.882;10.920;2023-07-24T07:56:11;25.00;99.90
6740;DHT22;3407;49.882;10.920;2023-07-24T08:01:07;24.30;99.90
6740;DHT22;3407;49.882;10.920;2023-07-24T08:06:02;24.10;99.90
6740;DHT22;3407;49.882;10.920;2023-07-24T08:10:58;23.60;99.90
6740;DHT22;3407;49.882;10.920;2023-07-24T08:15:53;23.30;99.90
6740;DHT22;3407;49.882;10.920;2023-07-24T08:20:49;22.90;1.00
6740;DHT22;3407;49.882;10.920;2023-07-24T08:25:54;22.60;1.00
6740;DHT22;3407;49.882;10.920;2023-07-24T08:30:57;22.50;1.00
6740;DHT22;3407;49.882;10.920;2023-07-24T08:36:07;22.30;1.00
6740;DHT22;3407;49.882;10.920;2023-07-24T08:41:08;22.40;1.00
6740;DHT22;3407;49.882;10.920;2023-07-24T08:46:04;22.60;1.00
6740;DHT22;3407;49.882;10.920;2023-07-24T08:51:00;23.00;1.00
6740;DHT22;3407;49.882;10.920;2023-07-24T08:55:56;23.50;1.00
6740;DHT22;3407;49.882;10.920;2023-07-24T09:00:52;24.00;99.90
6740;DHT22;3407;49.882;10.920;2023-07-24T09:05:48;24.10;99.90
6740;DHT22;3407;49.882;10.920;2023-07-24T09:10:44;23.90;99.90
6740;DHT22;3407;49.882;10.920;2023-07-24T09:15:40;23.90;99.90
6740;DHT22;3407;49.882;10.920;2023-07-24T09:20:40;24.40;99.90
6740;DHT22;3407;49.882;10.920;2023-07-24T09:25:38;25.00;99.90
6740;DHT22;3407;49.882;10.920;2023-07-24T09:30:34;24.80;99.90
6740;DHT22;3407;49.882;10.920;2023-07-24T09:35:29;24.30;99.90
6740;DHT22;3407;49.882;10.920;2023-07-24T09:40:26;23.20;99.90
6740;DHT22;3407;49.882;10.920;2023-07-24T09:45:22;22.20;1.00
6740;DHT22;3407;49.882;10.920;2023-07-24T09:50:17;21.30;1.00
6740;DHT22;3407;49.882;10.920;2023-07-24T09:55:30;20.60;1.00
6740;DHT22;3407;49.882;10.920;2023-07-24T10:00:27;20.20;1.00
6740;DHT22;3407;49.882;10.920;2023-07-24T10:05:23;20.10;1.00
6740;DHT22;3407;49.882;10.920;2023-07-24T10:10:18;20.60;1.00
6740;DHT22;3407;49.882;10.920;2023-07-24T10:15:14;21.40;1.00
6740;DHT22;3407;49.882;10.920;2023-07-24T10:20:11;22.00;1.00
6740;DHT22;3407;49.882;10.920;2023-07-24T10:25:07;22.00;99.90
6740;DHT22;3407;49.882;10.920;2023-07-24T10:30:04;21.70;99.90
6740;DHT22;3407;49.882;10.920;2023-07-24T10:35:08;21.80;1.00
6740;DHT22;3407;49.882;10.920;2023-07-24T10:40:05;22.20;1.00
6740;DHT22;3407;49.882;10.920;2023-07-24T10:45:07;23.10;99.90
6740;DHT22;3407;49.882;10.920;2023-07-24T10:50:03;24.20;25.10
6740;DHT22;3407;49.882;10.920;2023-07-24T10:55:03;25.10;1.00
6740;DHT22;3407;49.882;10.920;2023-07-24T10:59:59;25.30;99.90
6740;DHT22;3407;49.882;10.920;2023-07-24T11:04:54;24.60;99.90
6740;DHT22;3407;49.882;10.920;2023-07-24T11:09:53;24.50;1.00
6740;DHT22;3407;49.882;10.920;2023-07-24T11:14:50;24.80;1.00
6740;DHT22;3407;49.882;10.920;2023-07-24T11:19:46;25.30;51.90
6740;DHT22;3407;49.882;10.920;2023-07-24T11:24:47;25.70;1.00
6740;DHT22;3407;49.882;10.920;2023-07-24T11:29:49;25.50;1.00
6740;DHT22;3407;49.882;10.920;2023-07-24T11:34:47;25.40;1.00
6740;DHT22;3407;49.882;10.920;2023-07-24T11:39:43;25.10;1.00
6740;DHT22;3407;49.882;10.920;2023-07-24T11:44:39;24.90;1.00
6740;DHT22;3407;49.882;10.920;2023-07-24T11:49:35;24.90;1.00
6740;DHT22;3407;49.882;10.920;2023-07-24T11:54:33;25.00;1.00
6740;DHT22;3407;49.882;10.920;2023-07-24T11:59:37;25.00;1.00
6740;DHT22;3407;49.882;10.920;2023-07-24T12:04:34;24.90;1.00
6740;DHT22;3407;49.882;10.920;2023-07-24T12:09:30;24.70;1.00
6740;DHT22;3407;49.882;10.920;2023-07-24T12:14:25;24.60;1.00
6740;DHT22;3407;49.882;10.920;2023-07-24T12:19:21;24.80;1.00
6740;DHT22;3407;49.882;10.920;2023-07-24T12:24:16;24.80;99.90
6740;DHT22;3407;49.882;10.920;2023-07-24T12:29:12;24.90;99.90
6740;DHT22;3407;49.882;10.920;2023-07-24T12:34:07;25.00;99.90
6740;DHT22;3407;49.882;10.920;2023-07-24T12:39:03;24.80;99.90
6740;DHT22;3407;49.882;10.920;2023-07-24T12:43:58;24.70;99.90
6740;DHT22;3407;49.882;10.920;2023-07-24T12:48:54;24.70;99.90
6740;DHT22;3407;49.882;10.920;2023-07-24T12:53:49;25.00;99.90
6740;DHT22;3407;49.882;10.920;2023-07-24T12:58:45;24.90;99.90
6740;DHT22;3407;49.882;10.920;2023-07-24T13:03:40;25.00;99.90
6740;DHT22;3407;49.882;10.920;2023-07-24T13:08:36;25.10;99.90
6740;DHT22;3407;49.882;10.920;2023-07-24T13:13:31;25.10;99.90
6740;DHT22;3407;49.882;10.920;2023-07-24T13:18:27;25.30;99.90
6740;DHT22;3407;49.882;10.920;2023-07-24T13:23:22;26.50;99.90
6740;DHT22;3407;49.882;10.920;2023-07-24T13:28:18;27.20;99.90
6740;DHT22;3407;49.882;10.920;2023-07-24T13:33:14;28.60;99.90
6740;DHT22;3407;49.882;10.920;2023-07-24T13:38:09;29.70;99.90
6740;DHT22;3407;49.882;10.920;2023-07-24T13:43:05;31.50;99.90
6740;DHT22;3407;49.882;10.920;2023-07-24T13:48:00;31.00;99.90
6740;DHT22;3407;49.882;10.920;2023-07-24T13:52:57;29.90;99.90
6740;DHT22;3407;49.882;10.920;2023-07-24T13:57:52;29.30;99.90
6740;DHT22;3407;49.882;10.920;2023-07-24T14:02:48;30.00;99.90
6740;DHT22;3407;49.882;10.920;2023-07-24T14:07:44;30.60;97.00
6740;DHT22;3407;49.882;10.920;2023-07-24T14:12:39;30.00;92.80
6740;DHT22;3407;49.882;10.920;2023-07-24T14:17:35;28.70;93.80
6740;DHT22;3407;49.882;10.920;2023-07-24T14:22:31;28.00;99.90
6740;DHT22;3407;49.882;10.920;2023-07-24T14:27:26;27.70;99.90
6740;DHT22;3407;49.882;10.920;2023-07-24T14:32:22;27.80;99.90
6740;DHT22;3407;49.882;10.920;2023-07-24T14:37:18;27.70;99.90
6740;DHT22;3407;49.882;10.920;2023-07-24T14:42:13;27.40;99.90
6740;DHT22;3407;49.882;10.920;2023-07-24T14:47:09;27.10;99.90
6740;DHT22;3407;49.882;10.920;2023-07-24T14:52:05;26.70;99.90
6740;DHT22;3407;49.882;10.920;2023-07-24T14:57:00;26.50;99.90
6740;DHT22;3407;49.882;10.920;2023-07-24T15:01:57;26.50;99.90
6740;DHT22;3407;49.882;10.920;2023-07-24T15:06:53;26.60;99.90
6740;DHT22;3407;49.882;10.920;2023-07-24T15:11:48;26.70;99.90
6740;DHT22;3407;49.882;10.920;2023-07-24T15:16:44;26.50;99.90
6740;DHT22;3407;49.882;10.920;2023-07-24T15:21:40;26.20;99.90
6740;DHT22;3407;49.882;10.920;2023-07-24T15:26:36;25.90;99.90
6740;DHT22;3407;49.882;10.920;2023-07-24T15:31:32;25.80;99.90
6740;DHT22;3407;49.882;10.920;2023-07-24T15:36:32;25.70;99.90
6740;DHT22;3407;49.882;10.920;2023-07-24T15:41:29;25.70;99.90
6740;DHT22;3407;49.882;10.920;2023-07-24T15:46:25;25.70;99.90
6740;DHT22;3407;49.882;10.920;2023-07-24T15:51:25;25.60;99.90
6740;DHT22;3407;49.882;10.920;2023-07-24T15:56:22;25.40;99.90
6740;DHT22;3407;49.882;10.920;2023-07-24T16:01:17;25.30;99.90
6740;DHT22;3407;49.882;10.920;2023-07-24T16:06:16;25.30;99.90
6740;DHT22;3407;49.882;10.920;2023-07-24T16:11:12;25.40;99.90
6740;DHT22;3407;49.882;10.920;2023-07-24T16:16:07;25.70;99.90
6740;DHT22;3407;49.882;10.920;2023-07-24T16:21:04;25.80;99.90
6740;DHT22;3407;49.882;10.920;2023-07-24T16:26:00;25.50;99.90
6740;DHT22;3407;49.882;10.920;2023-07-24T16:30:56;25.30;99.90
6740;DHT22;3407;49.882;10.920;2023-07-24T16:35:52;25.00;99.90
6740;DHT22;3407;49.882;10.920;2023-07-24T16:40:48;24.80;99.90
6740;DHT22;3407;49.882;10.920;2023-07-24T16:45:46;24.60;99.90
6740;DHT22;3407;49.882;10.920;2023-07-24T16:50:44;24.30;99.90
6740;DHT22;3407;49.882;10.920;2023-07-24T16:55:40;24.00;99.90
6740;DHT22;3407;49.882;10.920;2023-07-24T17:00:36;23.80;99.90
6740;DHT22;3407;49.882;10.920;2023-07-24T17:05:32;23.60;99.90
6740;DHT22;3407;49.882;10.920;2023-07-24T17:10:39;23.30;99.90
6740;DHT22;3407;49.882;10.920;2023-07-24T17:15:35;23.10;99.90
6740;DHT22;3407;49.882;10.920;2023-07-24T17:20:31;22.90;99.90
6740;DHT22;3407;49.882;10.920;2023-07-24T17:25:26;22.90;99.90
6740;DHT22;3407;49.882;10.920;2023-07-24T17:30:22;22.80;99.90
6740;DHT22;3407;49.882;10.920;2023-07-24T17:35:17;22.80;99.90
6740;DHT22;3407;49.882;10.920;2023-07-24T17:40:13;22.80;99.90
6740;DHT22;3407;49.882;10.920;2023-07-24T17:45:08;22.70;99.90
6740;DHT22;3407;49.882;10.920;2023-07-24T17:50:05;22.80;99.90
6740;DHT22;3407;49.882;10.920;2023-07-24T17:55:00;22.80;99.90
6740;DHT22;3407;49.882;10.920;2023-07-24T17:59:56;23.00;99.90
6740;DHT22;3407;49.882;10.920;2023-07-24T18:04:51;23.20;99.90
6740;DHT22;3407;49.882;10.920;2023-07-24T18:09:47;23.10;99.90
6740;DHT22;3407;49.882;10.920;2023-07-24T18:14:42;23.10;99.90
6740;DHT22;3407;49.882;10.920;2023-07-24T18:19:38;23.00;99.90
6740;DHT22;3407;49.882;10.920;2023-07-24T18:24:33;22.80;99.90
6740;DHT22;3407;49.882;10.920;2023-07-24T18:29:29;22.60;99.90
6740;DHT22;3407;49.882;10.920;2023-07-24T18:34:26;22.30;99.90
6740;DHT22;3407;49.882;10.920;2023-07-24T18:39:21;22.10;99.90
6740;DHT22;3407;49.882;10.920;2023-07-24T18:44:17;21.90;99.90
6740;DHT22;3407;49.882;10.920;2023-07-24T18:49:13;21.70;99.90
6740;DHT22;3407;49.882;10.920;2023-07-24T18:54:08;21.50;99.90
6740;DHT22;3407;49.882;10.920;2023-07-24T18:59:04;21.40;1.00
6740;DHT22;3407;49.882;10.920;2023-07-24T19:04:00;21.20;1.00
6740;DHT22;3407;49.882;10.920;2023-07-24T19:08:55;21.10;1.00
6740;DHT22;3407;49.882;10.920;2023-07-24T19:13:51;21.00;1.00
6740;DHT22;3407;49.882;10.920;2023-07-24T19:18:46;20.90;99.30
6740;DHT22;3407;49.882;10.920;2023-07-24T19:23:42;20.90;99.90
6740;DHT22;3407;49.882;10.920;2023-07-24T19:28:37;20.80;99.90
6740;DHT22;3407;49.882;10.920;2023-07-24T19:33:33;20.70;1.00
6740;DHT22;3407;49.882;10.920;2023-07-24T19:38:28;20.60;99.90
6740;DHT22;3407;49.882;10.920;2023-07-24T19:43:24;20.50;99.90
6740;DHT22;3407;49.882;10.920;2023-07-24T19:48:21;20.40;1.00
6740;DHT22;3407;49.882;10.920;2023-07-24T19:53:20;20.30;56.60
6740;DHT22;3407;49.882;10.920;2023-07-24T19:58:17;20.20;99.90
6740;DHT22;3407;49.882;10.920;2023-07-24T20:03:14;20.10;99.90
6740;DHT22;3407;49.882;10.920;2023-07-24T20:08:10;20.00;1.00
6740;DHT22;3407;49.882;10.920;2023-07-24T20:13:05;19.90;1.00
6740;DHT22;3407;49.882;10.920;2023-07-24T20:18:01;19.90;99.90
6740;DHT22;3407;49.882;10.920;2023-07-24T20:22:58;19.80;1.00
6740;DHT22;3407;49.882;10.920;2023-07-24T20:27:53;19.70;1.00
6740;DHT22;3407;49.882;10.920;2023-07-24T20:32:49;19.70;1.00
6740;DHT22;3407;49.882;10.920;2023-07-24T20:37:45;19.60;99.90
6740;DHT22;3407;49.882;10.920;2023-07-24T20:42:42;19.50;99.90
6740;DHT22;3407;49.882;10.920;2023-07-24T20:47:37;19.40;1.00
6740;DHT22;3407;49.882;10.920;2023-07-24T20:52:33;19.40;43.50
6740;DHT22;3407;49.882;10.920;2023-07-24T20:57:29;19.50;1.00
6740;DHT22;3407;49.882;10.920;2023-07-24T21:02:24;19.40;99.90
6740;DHT22;3407;49.882;10.920;2023-07-24T21:07:20;19.40;1.00
6740;DHT22;3407;49.882;10.920;2023-07-24T21:12:16;19.40;1.00
6740;DHT22;3407;49.882;10.920;2023-07-24T21:17:11;19.40;1.00
6740;DHT22;3407;49.882;10.920;2023-07-24T21:22:07;19.40;1.00
6740;DHT22;3407;49.882;10.920;2023-07-24T21:27:02;19.40;99.90
6740;DHT22;3407;49.882;10.920;2023-07-24T21:31:58;19.40;48.10
6740;DHT22;3407;49.882;10.920;2023-07-24T21:36:54;19.30;1.00
6740;DHT22;3407;49.882;10.920;2023-07-24T21:41:49;19.30;99.90
6740;DHT22;3407;49.882;10.920;2023-07-24T21:46:45;19.20;1.00
6740;DHT22;3407;49.882;10.920;2023-07-24T21:51:41;19.20;1.00
6740;DHT22;3407;49.882;10.920;2023-07-24T21:56:37;19.10;99.90
6740;DHT22;3407;49.882;10.920;2023-07-24T22:01:32;19.00;99.90
6740;DHT22;3407;49.882;10.920;2023-07-24T22:06:28;19.00;1.00
6740;DHT22;3407;49.882;10.920;2023-07-24T22:11:23;18.90;1.00
6740;DHT22;3407;49.882;10.920;2023-07-24T22:16:20;18.90;1.00
6740;DHT22;3407;49.882;10.920;2023-07-24T22:21:15;18.80;1.00
6740;DHT22;3407;49.882;10.920;2023-07-24T22:26:11;18.70;92.50
6740;DHT22;3407;49.882;10.920;2023-07-24T22:31:07;18.60;53.40
6740;DHT22;3407;49.882;10.920;2023-07-24T22:36:03;18.50;99.90
6740;DHT22;3407;49.882;10.920;2023-07-24T22:41:08;18.50;99.90
6740;DHT22;3407;49.882;10.920;2023-07-24T22:46:04;18.40;99.90
6740;DHT22;3407;49.882;10.920;2023-07-24T22:50:59;18.30;1.00
6740;DHT22;3407;49.882;10.920;2023-07-24T22:55:55;18.20;1.00
6740;DHT22;3407;49.882;10.920;2023-07-24T23:00:50;18.10;25.20
6740;DHT22;3407;49.882;10.920;2023-07-24T23:05:46;18.00;99.90
6740;DHT22;3407;49.882;10.920;2023-07-24T23:10:41;17.90;99.90
6740;DHT22;3407;49.882;10.920;2023-07-24T23:15:37;17.80;99.90
6740;DHT22;3407;49.882;10.920;2023-07-24T23:20:32;17.80;99.90
6740;DHT22;3407;49.882;10.920;2023-07-24T23:25:28;17.70;99.90
6740;DHT22;3407;49.882;10.920;2023-07-24T23:30:23;17.70;99.90
6740;DHT22;3407;49.882;10.920;2023-07-24T23:35:19;17.70;1.00
6740;DHT22;3407;49.882;10.920;2023-07-24T23:40:14;17.70;1.00
6740;DHT22;3407;49.882;10.920;2023-07-24T23:45:10;17.60;1.00
6740;DHT22;3407;49.882;10.920;2023-07-24T23:50:06;17.50;1.00
6740;DHT22;3407;49.882;10.920;2023-07-24T23:55:01;17.50;1.00
6740;DHT22;3407;49.882;10.920;2023-07-24T23:59:57;17.40;1.00
